createdAt,value
2022-12-08T09:05:22.100Z,101255.63
2022-12-08T09:07:49.640Z,101263.13
2022-12-08T09:10:17.075Z,101261.25
2022-12-08T09:12:45.084Z,101261.75
2022-12-08T09:15:12.551Z,101261.59
2022-12-08T09:17:40.707Z,101263.28
2022-12-08T09:20:08.475Z,101252.19
2022-12-08T09:22:36.290Z,101253.41
2022-12-08T09:25:03.808Z,101250.69
2022-12-08T09:27:31.549Z,101249.63
2022-12-08T09:29:58.957Z,101246.56
2022-12-08T09:32:26.423Z,101247.78
2022-12-08T09:34:54.425Z,101249.47
2022-12-08T09:37:21.883Z,101250.16
2022-12-08T09:39:49.360Z,101250.16
2022-12-08T09:42:17.726Z,101250.84
2022-12-08T09:44:45.101Z,101243.16
2022-12-08T09:47:19.780Z,101246.22
2022-12-08T09:49:52.965Z,101242.28
2022-12-08T09:52:28.325Z,101249.66
2022-12-08T09:54:58.309Z,101252.22
2022-12-08T09:57:25.755Z,101247.59
2022-12-08T09:59:54.087Z,101255.94
2022-12-08T10:02:23.868Z,101252.22
2022-12-08T10:04:51.610Z,101250.81
2022-12-08T10:07:28.385Z,101253.03
2022-12-08T10:09:59.070Z,101253.91
2022-12-08T10:12:31.515Z,101252.53
2022-12-08T10:15:00.336Z,101245.03
2022-12-08T10:17:35.796Z,101241.44
2022-12-08T10:20:17.140Z,101248.97
2022-12-08T10:22:45.263Z,101245.03
2022-12-08T10:25:15.776Z,101241.94
2022-12-08T10:27:43.430Z,101246.03
2022-12-08T10:30:12.202Z,101233.22
2022-12-08T10:32:45.041Z,101242.63
2022-12-08T10:35:13.139Z,101238.88
2022-12-08T10:37:42.178Z,101229.31
2022-12-08T10:40:19.301Z,101228.66
2022-12-08T10:42:47.426Z,101230.00
2022-12-08T10:45:53.524Z,101233.06
2022-12-08T10:48:20.883Z,101241.78
2022-12-08T10:50:55.749Z,101240.06
2022-12-08T10:53:23.163Z,101230.38
2022-12-08T10:56:03.133Z,101226.28
2022-12-08T10:58:40.474Z,101228.84
2022-12-08T11:01:12.967Z,101233.78
2022-12-08T11:03:52.785Z,101228.97
2022-12-08T11:06:23.123Z,101226.94
2022-12-08T11:08:54.388Z,101219.09
2022-12-08T11:11:27.499Z,101211.03
2022-12-08T11:13:56.867Z,101210.22
2022-12-08T11:16:24.340Z,101204.38
2022-12-08T11:18:58.673Z,101198.75
2022-12-08T11:21:31.719Z,101207.44
2022-12-08T11:23:59.218Z,101199.75
2022-12-08T11:26:30.600Z,101204.53
2022-12-08T11:28:58.717Z,101188.97
2022-12-08T11:31:33.439Z,101202.75
2022-12-08T11:34:00.955Z,101191.34
2022-12-08T11:36:29.166Z,101186.94
2022-12-08T11:39:04.252Z,101186.41
2022-12-08T11:41:34.357Z,101194.06
2022-12-08T11:44:08.430Z,101195.97
2022-12-08T11:46:41.213Z,101200.22
2022-12-08T11:49:12.631Z,101199.69
2022-12-08T11:51:59.138Z,101194.38
2022-12-08T11:54:26.620Z,101196.63
2022-12-08T11:56:57.614Z,101186.72
2022-12-08T11:59:30.272Z,101188.69
2022-12-08T12:01:58.251Z,101184.50
2022-12-08T12:04:37.902Z,101185.88
2022-12-08T12:07:06.645Z,101186.84
2022-12-08T12:09:37.559Z,101189.81
2022-12-08T12:12:14.447Z,101199.75
2022-12-08T12:14:51.860Z,101194.06
2022-12-08T12:17:25.894Z,101190.81
2022-12-08T12:19:53.380Z,101187.03
2022-12-08T12:22:20.773Z,101191.44
2022-12-08T12:24:48.930Z,101188.69
2022-12-08T12:27:28.565Z,101188.38
2022-12-08T12:30:00.457Z,101189.91
2022-12-08T12:32:27.909Z,101185.13
2022-12-08T12:34:55.816Z,101188.13
2022-12-08T12:37:27.037Z,101199.31
2022-12-08T12:39:55.313Z,101200.38
2022-12-08T12:42:38.346Z,101200.00
2022-12-08T12:45:12.035Z,101212.25
2022-12-08T12:47:48.556Z,101212.75
2022-12-08T12:50:33.893Z,101214.84
2022-12-08T12:53:16.696Z,101210.75
2022-12-08T12:56:03.696Z,101212.44
2022-12-08T12:58:31.303Z,101207.13
2022-12-08T17:12:04.107Z,101195.22
2022-12-08T17:14:34.548Z,101200.22
2022-12-08T17:17:02.102Z,101199.88
2022-12-08T17:19:29.725Z,101202.81
2022-12-08T17:21:57.200Z,101188.19
2022-12-08T17:24:29.021Z,101195.28
2022-12-08T17:27:04.242Z,101184.56
2022-12-08T17:29:31.997Z,101182.19
2022-12-08T17:31:59.586Z,101194.63
2022-12-08T17:34:27.175Z,101196.78
2022-12-08T17:36:54.531Z,101196.09
2022-12-08T17:39:21.873Z,101178.34
2022-12-08T17:41:49.593Z,101179.22
2022-12-08T17:44:17.557Z,101160.28
2022-12-08T17:46:52.888Z,101161.63
2022-12-08T17:49:21.942Z,101157.22
2022-12-08T17:51:49.853Z,101161.72
2022-12-08T17:54:18.194Z,101171.06
2022-12-08T17:56:45.733Z,101165.75
2022-12-08T17:59:13.334Z,101168.63
2022-12-08T18:01:41.237Z,101166.56
2022-12-08T18:04:09.576Z,101167.13
2022-12-08T18:06:37.266Z,101160.97
2022-12-08T18:09:06.861Z,101157.16
2022-12-08T18:11:34.468Z,101168.75
2022-12-08T18:14:09.444Z,101173.38
2022-12-08T18:16:40.872Z,101174.06
2022-12-08T18:19:09.955Z,101182.44
2022-12-08T18:21:37.782Z,101173.50
2022-12-08T18:24:05.471Z,101166.22
2022-12-08T18:26:35.500Z,101178.56
2022-12-08T18:29:03.461Z,101168.03
2022-12-08T18:31:37.572Z,101184.47
2022-12-08T18:34:06.729Z,101176.97
2022-12-08T18:36:34.519Z,101171.03
2022-12-08T18:39:10.679Z,101184.88
2022-12-08T18:44:26.846Z,101167.78
2022-12-08T18:46:57.171Z,101173.25
2022-12-08T18:49:26.815Z,101174.66
2022-12-08T18:51:54.703Z,101178.06
2022-12-08T18:54:37.163Z,101153.94
2022-12-08T18:57:11.423Z,101148.09
2022-12-08T18:59:38.806Z,101161.63
2022-12-08T19:02:11.030Z,101165.72
2022-12-08T19:04:39.163Z,101156.97
2022-12-08T19:07:06.627Z,101164.88
2022-12-08T19:09:34.730Z,101158.38
2022-12-08T19:12:03.437Z,101160.81
2022-12-08T19:14:39.039Z,101170.56
2022-12-08T19:17:06.862Z,101171.25
2022-12-08T19:20:03.472Z,101176.69
2022-12-08T19:22:39.908Z,101176.03
2022-12-08T19:25:09.980Z,101164.88
2022-12-08T19:27:37.936Z,101159.97
2022-12-08T19:30:06.051Z,101169.16
2022-12-08T19:32:38.049Z,101172.94
2022-12-08T19:35:07.583Z,101178.59
2022-12-08T19:37:35.098Z,101159.88
2022-12-08T19:40:21.397Z,101160.09
2022-12-08T19:43:07.536Z,101153.41
2022-12-08T19:45:35.381Z,101146.03
2022-12-08T19:48:02.826Z,101169.94
2022-12-08T19:50:36.836Z,101146.16
2022-12-08T19:53:11.580Z,101164.94
2022-12-08T19:55:39.567Z,101163.78
2022-12-08T19:58:07.368Z,101146.53
2022-12-08T20:00:36.029Z,101155.72
2022-12-08T20:03:05.078Z,101142.88
2022-12-08T20:05:33.596Z,101153.69
2022-12-08T20:08:02.498Z,101149.06
2022-12-08T20:10:33.945Z,101152.69
2022-12-08T20:13:20.575Z,101157.81
2022-12-08T20:15:48.107Z,101159.16
2022-12-08T20:18:17.273Z,101170.16
2022-12-08T20:20:45.081Z,101171.06
2022-12-08T20:23:12.874Z,101148.06
2022-12-08T20:25:40.583Z,101143.72
2022-12-08T20:28:08.119Z,101157.09
2022-12-08T20:30:35.634Z,101164.38
2022-12-08T20:33:03.113Z,101146.41
2022-12-08T20:35:30.565Z,101157.22
2022-12-08T20:37:58.132Z,101153.81
2022-12-08T20:40:25.774Z,101151.19
2022-12-08T20:42:53.281Z,101150.66
2022-12-08T20:45:21.111Z,101160.63
2022-12-08T20:47:49.292Z,101136.31
2022-12-08T20:50:17.228Z,101121.72
2022-12-08T20:52:44.825Z,101120.06
2022-12-08T20:55:12.312Z,101112.34
2022-12-08T20:57:40.175Z,101120.59
2022-12-08T21:00:08.336Z,101110.47
2022-12-08T21:02:36.251Z,101115.25
2022-12-08T21:05:05.380Z,101120.38
2022-12-08T21:07:33.780Z,101121.34
2022-12-08T21:10:01.423Z,101115.09
2022-12-08T21:12:29.254Z,101121.06
2022-12-08T21:14:57.062Z,101112.97
2022-12-08T21:17:24.629Z,101106.81
2022-12-08T21:19:52.234Z,101111.53
2022-12-08T21:22:21.140Z,101102.44
2022-12-08T21:24:48.722Z,101121.06
2022-12-08T21:27:16.225Z,101120.28
2022-12-08T21:29:43.723Z,101120.84
2022-12-08T21:32:11.209Z,101112.47
2022-12-08T21:34:39.103Z,101102.00
2022-12-08T21:37:06.765Z,101098.91
2022-12-08T21:39:34.354Z,101099.28
2022-12-08T21:42:22.863Z,101099.28
2022-12-08T21:44:50.630Z,101090.97
2022-12-08T21:47:18.399Z,101082.09
2022-12-08T21:49:46.502Z,101105.50
2022-12-08T21:52:13.914Z,101092.84
2022-12-08T21:54:41.574Z,101103.13
2022-12-08T21:57:08.981Z,101112.41
2022-12-08T21:59:36.573Z,101094.25
